sensor_id;sensor_type;location;lat;lon;timestamp;P1;durP1;ratioP1;P2;durP2;ratioP2
8708;SDS011;4391;48.678;9.280;2023-09-12T00:00:23;13.82;;;6.68;;
8708;SDS011;4391;48.678;9.280;2023-09-12T00:02:51;15.43;;;6.80;;
8708;SDS011;4391;48.678;9.280;2023-09-12T00:05:18;13.73;;;6.65;;
8708;SDS011;4391;48.678;9.280;2023-09-12T00:07:45;13.53;;;7.27;;
8708;SDS011;4391;48.678;9.280;2023-09-12T00:10:11;16.50;;;7.38;;
8708;SDS011;4391;48.678;9.280;2023-09-12T00:12:38;14.82;;;6.65;;
8708;SDS011;4391;48.678;9.280;2023-09-12T00:15:05;14.60;;;7.30;;
8708;SDS011;4391;48.678;9.280;2023-09-12T00:17:33;14.85;;;7.20;;
8708;SDS011;4391;48.678;9.280;2023-09-12T00:20:01;13.63;;;6.90;;
8708;SDS011;4391;48.678;9.280;2023-09-12T00:22:31;21.08;;;7.85;;
8708;SDS011;4391;48.678;9.280;2023-09-12T00:24:58;12.45;;;7.03;;
8708;SDS011;4391;48.678;9.280;2023-09-12T00:27:24;15.57;;;7.30;;
8708;SDS011;4391;48.678;9.280;2023-09-12T00:29:51;14.23;;;7.05;;
8708;SDS011;4391;48.678;9.280;2023-09-12T00:32:18;17.67;;;8.20;;
8708;SDS011;4391;48.678;9.280;2023-09-12T00:34:45;17.15;;;7.47;;
8708;SDS011;4391;48.678;9.280;2023-09-12T00:37:13;15.13;;;7.10;;
8708;SDS011;4391;48.678;9.280;2023-09-12T00:39:40;13.77;;;6.82;;
8708;SDS011;4391;48.678;9.280;2023-09-12T00:42:07;14.95;;;6.95;;
8708;SDS011;4391;48.678;9.280;2023-09-12T00:44:34;16.50;;;7.60;;
8708;SDS011;4391;48.678;9.280;2023-09-12T00:47:01;13.43;;;7.00;;
8708;SDS011;4391;48.678;9.280;2023-09-12T00:49:28;11.60;;;7.22;;
8708;SDS011;4391;48.678;9.280;2023-09-12T00:51:56;12.38;;;6.88;;
8708;SDS011;4391;48.678;9.280;2023-09-12T00:54:25;13.25;;;7.57;;
8708;SDS011;4391;48.678;9.280;2023-09-12T00:56:52;16.13;;;7.50;;
8708;SDS011;4391;48.678;9.280;2023-09-12T00:59:19;13.68;;;6.07;;
8708;SDS011;4391;48.678;9.280;2023-09-12T01:01:47;13.50;;;7.00;;
8708;SDS011;4391;48.678;9.280;2023-09-12T01:04:14;12.13;;;7.15;;
8708;SDS011;4391;48.678;9.280;2023-09-12T01:06:41;17.90;;;7.15;;
8708;SDS011;4391;48.678;9.280;2023-09-12T01:09:09;11.83;;;6.60;;
8708;SDS011;4391;48.678;9.280;2023-09-12T01:11:37;14.30;;;6.85;;
8708;SDS011;4391;48.678;9.280;2023-09-12T01:14:05;10.80;;;6.78;;
8708;SDS011;4391;48.678;9.280;2023-09-12T01:16:31;15.48;;;7.35;;
8708;SDS011;4391;48.678;9.280;2023-09-12T01:18:58;18.88;;;7.15;;
8708;SDS011;4391;48.678;9.280;2023-09-12T01:21:37;13.93;;;7.03;;
8708;SDS011;4391;48.678;9.280;2023-09-12T01:27:21;13.70;;;7.60;;
8708;SDS011;4391;48.678;9.280;2023-09-12T01:29:53;13.70;;;7.00;;
8708;SDS011;4391;48.678;9.280;2023-09-12T01:32:22;16.20;;;8.10;;
8708;SDS011;4391;48.678;9.280;2023-09-12T01:34:49;15.37;;;8.30;;
8708;SDS011;4391;48.678;9.280;2023-09-12T01:37:16;18.85;;;8.88;;
8708;SDS011;4391;48.678;9.280;2023-09-12T01:39:43;16.73;;;7.40;;
8708;SDS011;4391;48.678;9.280;2023-09-12T01:42:10;15.55;;;8.05;;
8708;SDS011;4391;48.678;9.280;2023-09-12T01:44:42;13.65;;;8.15;;
8708;SDS011;4391;48.678;9.280;2023-09-12T01:47:10;15.67;;;8.03;;
8708;SDS011;4391;48.678;9.280;2023-09-12T01:49:39;15.85;;;7.72;;
8708;SDS011;4391;48.678;9.280;2023-09-12T01:52:08;14.50;;;7.85;;
8708;SDS011;4391;48.678;9.280;2023-09-12T01:54:36;13.93;;;8.05;;
8708;SDS011;4391;48.678;9.280;2023-09-12T01:57:04;12.77;;;7.68;;
8708;SDS011;4391;48.678;9.280;2023-09-12T01:59:34;15.57;;;8.30;;
8708;SDS011;4391;48.678;9.280;2023-09-12T02:02:03;14.52;;;7.10;;
8708;SDS011;4391;48.678;9.280;2023-09-12T02:04:30;13.50;;;7.22;;
8708;SDS011;4391;48.678;9.280;2023-09-12T02:06:56;13.02;;;7.90;;
8708;SDS011;4391;48.678;9.280;2023-09-12T02:09:24;13.10;;;7.72;;
8708;SDS011;4391;48.678;9.280;2023-09-12T02:11:51;14.37;;;7.70;;
8708;SDS011;4391;48.678;9.280;2023-09-12T02:14:18;14.10;;;7.80;;
8708;SDS011;4391;48.678;9.280;2023-09-12T02:16:44;15.88;;;8.00;;
8708;SDS011;4391;48.678;9.280;2023-09-12T02:19:13;14.07;;;7.57;;
8708;SDS011;4391;48.678;9.280;2023-09-12T02:21:39;14.90;;;7.80;;
8708;SDS011;4391;48.678;9.280;2023-09-12T02:24:07;17.57;;;7.37;;
8708;SDS011;4391;48.678;9.280;2023-09-12T02:26:34;14.25;;;7.88;;
8708;SDS011;4391;48.678;9.280;2023-09-12T02:29:05;15.82;;;8.07;;
8708;SDS011;4391;48.678;9.280;2023-09-12T02:31:32;12.15;;;7.30;;
8708;SDS011;4391;48.678;9.280;2023-09-12T02:33:59;13.00;;;7.88;;
8708;SDS011;4391;48.678;9.280;2023-09-12T02:36:27;12.13;;;7.33;;
8708;SDS011;4391;48.678;9.280;2023-09-12T02:38:54;13.50;;;7.18;;
8708;SDS011;4391;48.678;9.280;2023-09-12T02:41:21;15.75;;;7.40;;
8708;SDS011;4391;48.678;9.280;2023-09-12T02:43:48;15.20;;;7.40;;
8708;SDS011;4391;48.678;9.280;2023-09-12T02:46:15;13.50;;;7.93;;
8708;SDS011;4391;48.678;9.280;2023-09-12T02:48:42;13.53;;;7.20;;
8708;SDS011;4391;48.678;9.280;2023-09-12T02:51:09;14.77;;;7.70;;
8708;SDS011;4391;48.678;9.280;2023-09-12T02:53:37;12.57;;;7.30;;
8708;SDS011;4391;48.678;9.280;2023-09-12T02:56:04;16.38;;;7.97;;
8708;SDS011;4391;48.678;9.280;2023-09-12T02:58:31;14.52;;;7.90;;
8708;SDS011;4391;48.678;9.280;2023-09-12T03:00:58;17.60;;;8.10;;
8708;SDS011;4391;48.678;9.280;2023-09-12T03:03:26;16.00;;;7.13;;
8708;SDS011;4391;48.678;9.280;2023-09-12T03:05:59;12.68;;;6.78;;
8708;SDS011;4391;48.678;9.280;2023-09-12T03:08:27;12.95;;;7.63;;
8708;SDS011;4391;48.678;9.280;2023-09-12T03:10:56;16.00;;;7.75;;
8708;SDS011;4391;48.678;9.280;2023-09-12T03:13:24;12.60;;;7.53;;
8708;SDS011;4391;48.678;9.280;2023-09-12T03:15:51;12.48;;;7.80;;
8708;SDS011;4391;48.678;9.280;2023-09-12T03:18:18;11.88;;;7.30;;
8708;SDS011;4391;48.678;9.280;2023-09-12T03:20:45;16.73;;;8.05;;
8708;SDS011;4391;48.678;9.280;2023-09-12T03:23:12;16.70;;;8.10;;
8708;SDS011;4391;48.678;9.280;2023-09-12T03:25:38;14.70;;;7.80;;
8708;SDS011;4391;48.678;9.280;2023-09-12T03:28:07;15.80;;;8.20;;
8708;SDS011;4391;48.678;9.280;2023-09-12T03:30:34;12.30;;;7.32;;
8708;SDS011;4391;48.678;9.280;2023-09-12T03:33:02;12.20;;;7.63;;
8708;SDS011;4391;48.678;9.280;2023-09-12T03:35:30;14.10;;;7.80;;
8708;SDS011;4391;48.678;9.280;2023-09-12T03:37:58;14.77;;;8.03;;
8708;SDS011;4391;48.678;9.280;2023-09-12T03:40:27;17.02;;;8.55;;
8708;SDS011;4391;48.678;9.280;2023-09-12T03:42:55;14.70;;;7.75;;
8708;SDS011;4391;48.678;9.280;2023-09-12T03:45:23;14.43;;;7.97;;
8708;SDS011;4391;48.678;9.280;2023-09-12T03:47:50;13.25;;;7.65;;
8708;SDS011;4391;48.678;9.280;2023-09-12T03:50:17;14.73;;;7.90;;
8708;SDS011;4391;48.678;9.280;2023-09-12T03:52:44;13.80;;;8.05;;
8708;SDS011;4391;48.678;9.280;2023-09-12T03:55:11;15.70;;;7.90;;
8708;SDS011;4391;48.678;9.280;2023-09-12T03:57:38;16.45;;;7.80;;
8708;SDS011;4391;48.678;9.280;2023-09-12T04:00:05;13.65;;;7.45;;
8708;SDS011;4391;48.678;9.280;2023-09-12T04:02:35;14.27;;;8.17;;
8708;SDS011;4391;48.678;9.280;2023-09-12T04:05:02;13.57;;;7.65;;
8708;SDS011;4391;48.678;9.280;2023-09-12T04:07:29;14.75;;;7.50;;
8708;SDS011;4391;48.678;9.280;2023-09-12T04:09:56;15.20;;;8.18;;
8708;SDS011;4391;48.678;9.280;2023-09-12T04:12:22;14.13;;;7.72;;
8708;SDS011;4391;48.678;9.280;2023-09-12T04:14:49;15.73;;;7.87;;
8708;SDS011;4391;48.678;9.280;2023-09-12T04:17:17;16.70;;;7.68;;
8708;SDS011;4391;48.678;9.280;2023-09-12T04:19:45;13.73;;;8.43;;
8708;SDS011;4391;48.678;9.280;2023-09-12T04:22:12;15.18;;;7.45;;
8708;SDS011;4391;48.678;9.280;2023-09-12T04:24:39;13.60;;;6.97;;
8708;SDS011;4391;48.678;9.280;2023-09-12T04:27:06;14.80;;;8.00;;
8708;SDS011;4391;48.678;9.280;2023-09-12T04:29:33;14.90;;;7.85;;
8708;SDS011;4391;48.678;9.280;2023-09-12T04:32:01;18.05;;;8.63;;
8708;SDS011;4391;48.678;9.280;2023-09-12T04:34:28;16.75;;;8.25;;
8708;SDS011;4391;48.678;9.280;2023-09-12T04:36:57;16.65;;;8.05;;
8708;SDS011;4391;48.678;9.280;2023-09-12T04:39:24;17.27;;;9.07;;
8708;SDS011;4391;48.678;9.280;2023-09-12T04:41:51;15.55;;;7.93;;
8708;SDS011;4391;48.678;9.280;2023-09-12T04:44:18;21.38;;;8.45;;
8708;SDS011;4391;48.678;9.280;2023-09-12T04:46:45;12.65;;;7.22;;
8708;SDS011;4391;48.678;9.280;2023-09-12T04:49:12;16.42;;;8.20;;
8708;SDS011;4391;48.678;9.280;2023-09-12T04:51:39;15.53;;;7.90;;
8708;SDS011;4391;48.678;9.280;2023-09-12T04:54:09;14.90;;;8.38;;
8708;SDS011;4391;48.678;9.280;2023-09-12T04:56:36;16.50;;;8.88;;
8708;SDS011;4391;48.678;9.280;2023-09-12T04:59:02;13.00;;;8.43;;
8708;SDS011;4391;48.678;9.280;2023-09-12T05:01:31;18.15;;;8.23;;
8708;SDS011;4391;48.678;9.280;2023-09-12T05:03:59;15.27;;;8.70;;
8708;SDS011;4391;48.678;9.280;2023-09-12T05:06:25;16.50;;;8.40;;
8708;SDS011;4391;48.678;9.280;2023-09-12T05:08:52;24.63;;;8.77;;
8708;SDS011;4391;48.678;9.280;2023-09-12T05:11:21;15.43;;;7.90;;
8708;SDS011;4391;48.678;9.280;2023-09-12T05:13:48;16.67;;;8.88;;
8708;SDS011;4391;48.678;9.280;2023-09-12T05:16:15;13.17;;;8.27;;
8708;SDS011;4391;48.678;9.280;2023-09-12T05:18:42;16.90;;;8.45;;
8708;SDS011;4391;48.678;9.280;2023-09-12T05:21:09;16.58;;;8.00;;
8708;SDS011;4391;48.678;9.280;2023-09-12T05:23:35;13.13;;;7.40;;
8708;SDS011;4391;48.678;9.280;2023-09-12T05:26:02;16.05;;;7.93;;
8708;SDS011;4391;48.678;9.280;2023-09-12T05:28:30;17.87;;;8.23;;
8708;SDS011;4391;48.678;9.280;2023-09-12T05:30:57;16.45;;;7.97;;
8708;SDS011;4391;48.678;9.280;2023-09-12T05:33:24;18.10;;;7.93;;
8708;SDS011;4391;48.678;9.280;2023-09-12T05:35:51;15.15;;;8.38;;
8708;SDS011;4391;48.678;9.280;2023-09-12T05:38:18;15.25;;;8.40;;
8708;SDS011;4391;48.678;9.280;2023-09-12T05:40:45;15.67;;;7.53;;
8708;SDS011;4391;48.678;9.280;2023-09-12T05:43:14;15.73;;;8.40;;
8708;SDS011;4391;48.678;9.280;2023-09-12T05:45:43;12.65;;;7.93;;
8708;SDS011;4391;48.678;9.280;2023-09-12T05:48:10;19.13;;;8.52;;
8708;SDS011;4391;48.678;9.280;2023-09-12T05:50:37;14.63;;;8.55;;
8708;SDS011;4391;48.678;9.280;2023-09-12T05:53:04;15.70;;;7.53;;
8708;SDS011;4391;48.678;9.280;2023-09-12T05:55:30;14.98;;;9.02;;
8708;SDS011;4391;48.678;9.280;2023-09-12T05:57:57;14.25;;;8.18;;
8708;SDS011;4391;48.678;9.280;2023-09-12T06:00:24;18.27;;;7.68;;
8708;SDS011;4391;48.678;9.280;2023-09-12T06:02:52;14.15;;;7.78;;
8708;SDS011;4391;48.678;9.280;2023-09-12T06:05:20;20.67;;;9.93;;
8708;SDS011;4391;48.678;9.280;2023-09-12T06:07:47;15.88;;;8.00;;
8708;SDS011;4391;48.678;9.280;2023-09-12T06:10:14;14.75;;;7.65;;
8708;SDS011;4391;48.678;9.280;2023-09-12T06:12:40;13.32;;;7.32;;
8708;SDS011;4391;48.678;9.280;2023-09-12T06:15:07;13.68;;;7.28;;
8708;SDS011;4391;48.678;9.280;2023-09-12T06:17:35;13.37;;;7.20;;
8708;SDS011;4391;48.678;9.280;2023-09-12T06:20:04;14.20;;;6.72;;
8708;SDS011;4391;48.678;9.280;2023-09-12T06:22:32;15.35;;;8.15;;
8708;SDS011;4391;48.678;9.280;2023-09-12T06:24:59;12.10;;;7.43;;
8708;SDS011;4391;48.678;9.280;2023-09-12T06:27:26;12.75;;;7.00;;
8708;SDS011;4391;48.678;9.280;2023-09-12T06:29:53;12.30;;;6.93;;
8708;SDS011;4391;48.678;9.280;2023-09-12T06:32:19;13.32;;;7.22;;
8708;SDS011;4391;48.678;9.280;2023-09-12T06:34:46;16.00;;;7.63;;
8708;SDS011;4391;48.678;9.280;2023-09-12T06:37:14;13.88;;;7.28;;
8708;SDS011;4391;48.678;9.280;2023-09-12T06:39:41;15.90;;;6.80;;
8708;SDS011;4391;48.678;9.280;2023-09-12T06:42:08;11.27;;;6.73;;
8708;SDS011;4391;48.678;9.280;2023-09-12T06:44:35;13.27;;;6.50;;
8708;SDS011;4391;48.678;9.280;2023-09-12T06:47:03;11.73;;;6.60;;
8708;SDS011;4391;48.678;9.280;2023-09-12T06:49:30;12.77;;;7.00;;
8708;SDS011;4391;48.678;9.280;2023-09-12T06:51:58;12.98;;;6.57;;
8708;SDS011;4391;48.678;9.280;2023-09-12T06:54:26;9.33;;;6.23;;
8708;SDS011;4391;48.678;9.280;2023-09-12T06:56:53;14.02;;;6.90;;
8708;SDS011;4391;48.678;9.280;2023-09-12T06:59:19;13.07;;;7.18;;
8708;SDS011;4391;48.678;9.280;2023-09-12T07:01:46;13.40;;;6.60;;
8708;SDS011;4391;48.678;9.280;2023-09-12T07:04:13;17.75;;;7.60;;
8708;SDS011;4391;48.678;9.280;2023-09-12T07:06:40;18.67;;;7.57;;
8708;SDS011;4391;48.678;9.280;2023-09-12T07:09:07;11.02;;;6.72;;
8708;SDS011;4391;48.678;9.280;2023-09-12T07:11:38;11.80;;;6.97;;
8708;SDS011;4391;48.678;9.280;2023-09-12T07:14:05;11.65;;;6.90;;
8708;SDS011;4391;48.678;9.280;2023-09-12T07:16:31;16.75;;;6.70;;
8708;SDS011;4391;48.678;9.280;2023-09-12T07:18:58;12.03;;;6.67;;
8708;SDS011;4391;48.678;9.280;2023-09-12T07:21:25;14.10;;;6.82;;
8708;SDS011;4391;48.678;9.280;2023-09-12T07:23:53;18.27;;;6.95;;
8708;SDS011;4391;48.678;9.280;2023-09-12T07:26:19;14.85;;;7.47;;
8708;SDS011;4391;48.678;9.280;2023-09-12T07:28:48;11.32;;;6.25;;
8708;SDS011;4391;48.678;9.280;2023-09-12T07:31:14;15.10;;;7.20;;
8708;SDS011;4391;48.678;9.280;2023-09-12T07:33:43;14.52;;;7.90;;
8708;SDS011;4391;48.678;9.280;2023-09-12T07:36:10;13.35;;;7.28;;
8708;SDS011;4391;48.678;9.280;2023-09-12T07:38:37;13.27;;;6.90;;
8708;SDS011;4391;48.678;9.280;2023-09-12T07:41:04;13.20;;;7.40;;
8708;SDS011;4391;48.678;9.280;2023-09-12T07:43:30;14.00;;;6.97;;
8708;SDS011;4391;48.678;9.280;2023-09-12T07:45:59;12.27;;;6.68;;
8708;SDS011;4391;48.678;9.280;2023-09-12T07:48:25;14.65;;;6.97;;
8708;SDS011;4391;48.678;9.280;2023-09-12T07:50:53;13.38;;;6.80;;
8708;SDS011;4391;48.678;9.280;2023-09-12T07:53:20;12.65;;;6.78;;
8708;SDS011;4391;48.678;9.280;2023-09-12T07:55:47;14.23;;;6.83;;
8708;SDS011;4391;48.678;9.280;2023-09-12T07:58:14;10.63;;;5.65;;
8708;SDS011;4391;48.678;9.280;2023-09-12T08:00:43;13.52;;;6.80;;
8708;SDS011;4391;48.678;9.280;2023-09-12T08:03:11;11.48;;;6.22;;
8708;SDS011;4391;48.678;9.280;2023-09-12T08:05:38;13.98;;;6.72;;
8708;SDS011;4391;48.678;9.280;2023-09-12T08:08:05;14.43;;;6.87;;
8708;SDS011;4391;48.678;9.280;2023-09-12T08:10:32;12.02;;;6.38;;
8708;SDS011;4391;48.678;9.280;2023-09-12T08:12:59;10.43;;;6.00;;
8708;SDS011;4391;48.678;9.280;2023-09-12T08:15:26;14.40;;;6.60;;
8708;SDS011;4391;48.678;9.280;2023-09-12T08:17:53;13.35;;;6.78;;
8708;SDS011;4391;48.678;9.280;2023-09-12T08:20:22;10.80;;;6.27;;
8708;SDS011;4391;48.678;9.280;2023-09-12T08:22:48;12.20;;;6.63;;
8708;SDS011;4391;48.678;9.280;2023-09-12T08:25:15;13.88;;;6.05;;
8708;SDS011;4391;48.678;9.280;2023-09-12T08:27:43;17.55;;;6.30;;
8708;SDS011;4391;48.678;9.280;2023-09-12T08:30:10;12.45;;;6.28;;
8708;SDS011;4391;48.678;9.280;2023-09-12T08:32:38;13.57;;;6.30;;
8708;SDS011;4391;48.678;9.280;2023-09-12T08:35:08;14.60;;;6.40;;
8708;SDS011;4391;48.678;9.280;2023-09-12T08:37:39;13.55;;;7.35;;
8708;SDS011;4391;48.678;9.280;2023-09-12T08:40:07;14.90;;;6.75;;
8708;SDS011;4391;48.678;9.280;2023-09-12T08:42:36;14.48;;;7.30;;
8708;SDS011;4391;48.678;9.280;2023-09-12T08:45:07;12.07;;;6.23;;
8708;SDS011;4391;48.678;9.280;2023-09-12T08:47:37;12.88;;;6.05;;
8708;SDS011;4391;48.678;9.280;2023-09-12T08:50:07;14.27;;;6.28;;
8708;SDS011;4391;48.678;9.280;2023-09-12T08:52:36;10.75;;;5.57;;
8708;SDS011;4391;48.678;9.280;2023-09-12T08:55:04;12.38;;;5.82;;
8708;SDS011;4391;48.678;9.280;2023-09-12T08:57:32;10.00;;;6.00;;
8708;SDS011;4391;48.678;9.280;2023-09-12T09:00:01;13.30;;;6.30;;
8708;SDS011;4391;48.678;9.280;2023-09-12T09:02:31;11.10;;;6.38;;
8708;SDS011;4391;48.678;9.280;2023-09-12T09:04:58;13.52;;;5.82;;
8708;SDS011;4391;48.678;9.280;2023-09-12T09:07:26;10.68;;;5.88;;
8708;SDS011;4391;48.678;9.280;2023-09-12T09:09:54;9.23;;;5.73;;
8708;SDS011;4391;48.678;9.280;2023-09-12T09:12:23;11.32;;;6.22;;
8708;SDS011;4391;48.678;9.280;2023-09-12T09:14:50;12.00;;;6.18;;
8708;SDS011;4391;48.678;9.280;2023-09-12T09:17:17;11.90;;;6.93;;
8708;SDS011;4391;48.678;9.280;2023-09-12T09:19:45;10.15;;;5.72;;
8708;SDS011;4391;48.678;9.280;2023-09-12T09:22:12;12.10;;;6.47;;
8708;SDS011;4391;48.678;9.280;2023-09-12T09:24:39;11.40;;;6.15;;
8708;SDS011;4391;48.678;9.280;2023-09-12T09:27:06;12.95;;;5.95;;
8708;SDS011;4391;48.678;9.280;2023-09-12T09:29:45;11.55;;;5.97;;
8708;SDS011;4391;48.678;9.280;2023-09-12T09:32:16;16.25;;;6.75;;
8708;SDS011;4391;48.678;9.280;2023-09-12T09:34:46;11.03;;;5.83;;
8708;SDS011;4391;48.678;9.280;2023-09-12T09:37:13;8.98;;;6.00;;
8708;SDS011;4391;48.678;9.280;2023-09-12T09:39:44;9.55;;;5.78;;
8708;SDS011;4391;48.678;9.280;2023-09-12T09:42:12;12.38;;;6.10;;
8708;SDS011;4391;48.678;9.280;2023-09-12T09:44:39;14.90;;;6.05;;
8708;SDS011;4391;48.678;9.280;2023-09-12T09:47:08;8.30;;;5.47;;
8708;SDS011;4391;48.678;9.280;2023-09-12T09:49:38;11.73;;;5.75;;
8708;SDS011;4391;48.678;9.280;2023-09-12T09:52:06;10.27;;;5.60;;
8708;SDS011;4391;48.678;9.280;2023-09-12T09:54:33;9.52;;;5.80;;
8708;SDS011;4391;48.678;9.280;2023-09-12T09:57:00;13.25;;;5.78;;
8708;SDS011;4391;48.678;9.280;2023-09-12T09:59:28;8.70;;;5.13;;
8708;SDS011;4391;48.678;9.280;2023-09-12T10:01:55;10.43;;;5.63;;
8708;SDS011;4391;48.678;9.280;2023-09-12T10:04:25;9.77;;;5.15;;
8708;SDS011;4391;48.678;9.280;2023-09-12T10:06:55;10.27;;;5.32;;
8708;SDS011;4391;48.678;9.280;2023-09-12T10:09:25;11.68;;;5.30;;
8708;SDS011;4391;48.678;9.280;2023-09-12T10:11:53;9.57;;;5.30;;
8708;SDS011;4391;48.678;9.280;2023-09-12T10:14:22;8.70;;;5.00;;
8708;SDS011;4391;48.678;9.280;2023-09-12T10:16:50;9.52;;;5.10;;
8708;SDS011;4391;48.678;9.280;2023-09-12T10:19:23;9.70;;;5.25;;
8708;SDS011;4391;48.678;9.280;2023-09-12T10:21:54;12.77;;;5.57;;
8708;SDS011;4391;48.678;9.280;2023-09-12T10:24:26;10.02;;;4.82;;
8708;SDS011;4391;48.678;9.280;2023-09-12T10:26:54;9.10;;;4.95;;
8708;SDS011;4391;48.678;9.280;2023-09-12T10:29:22;10.27;;;4.90;;
8708;SDS011;4391;48.678;9.280;2023-09-12T10:31:50;9.73;;;5.40;;
8708;SDS011;4391;48.678;9.280;2023-09-12T10:34:17;8.07;;;4.95;;
8708;SDS011;4391;48.678;9.280;2023-09-12T10:36:46;10.57;;;5.45;;
8708;SDS011;4391;48.678;9.280;2023-09-12T10:39:15;9.95;;;5.10;;
8708;SDS011;4391;48.678;9.280;2023-09-12T10:41:41;9.37;;;4.93;;
8708;SDS011;4391;48.678;9.280;2023-09-12T10:44:09;9.40;;;4.73;;
8708;SDS011;4391;48.678;9.280;2023-09-12T10:46:38;7.82;;;4.88;;
8708;SDS011;4391;48.678;9.280;2023-09-12T10:49:06;8.05;;;4.82;;
8708;SDS011;4391;48.678;9.280;2023-09-12T10:51:35;9.85;;;5.05;;
8708;SDS011;4391;48.678;9.280;2023-09-12T10:54:07;9.63;;;4.70;;
8708;SDS011;4391;48.678;9.280;2023-09-12T10:56:34;8.77;;;4.85;;
8708;SDS011;4391;48.678;9.280;2023-09-12T10:59:11;8.63;;;4.57;;
8708;SDS011;4391;48.678;9.280;2023-09-12T11:01:39;9.50;;;5.10;;
8708;SDS011;4391;48.678;9.280;2023-09-12T11:07:00;11.82;;;4.32;;
8708;SDS011;4391;48.678;9.280;2023-09-12T11:09:28;7.75;;;3.95;;
8708;SDS011;4391;48.678;9.280;2023-09-12T11:11:56;8.93;;;4.38;;
8708;SDS011;4391;48.678;9.280;2023-09-12T11:14:25;7.60;;;4.17;;
8708;SDS011;4391;48.678;9.280;2023-09-12T11:19:48;9.48;;;4.45;;
8708;SDS011;4391;48.678;9.280;2023-09-12T11:22:24;7.85;;;4.20;;
8708;SDS011;4391;48.678;9.280;2023-09-12T11:24:54;9.90;;;4.25;;
8708;SDS011;4391;48.678;9.280;2023-09-12T11:27:22;6.95;;;4.10;;
8708;SDS011;4391;48.678;9.280;2023-09-12T11:29:49;10.40;;;4.23;;
8708;SDS011;4391;48.678;9.280;2023-09-12T11:32:27;7.20;;;3.97;;
8708;SDS011;4391;48.678;9.280;2023-09-12T11:34:56;11.25;;;4.47;;
8708;SDS011;4391;48.678;9.280;2023-09-12T11:37:25;7.88;;;4.05;;
8708;SDS011;4391;48.678;9.280;2023-09-12T11:39:56;9.05;;;4.35;;
8708;SDS011;4391;48.678;9.280;2023-09-12T11:42:23;9.68;;;3.83;;
8708;SDS011;4391;48.678;9.280;2023-09-12T11:44:51;9.97;;;3.80;;
8708;SDS011;4391;48.678;9.280;2023-09-12T11:47:18;9.68;;;4.28;;
8708;SDS011;4391;48.678;9.280;2023-09-12T11:49:46;7.18;;;3.70;;
8708;SDS011;4391;48.678;9.280;2023-09-12T11:52:13;11.32;;;4.18;;
8708;SDS011;4391;48.678;9.280;2023-09-12T11:54:41;7.15;;;3.95;;
8708;SDS011;4391;48.678;9.280;2023-09-12T11:57:11;6.73;;;3.50;;
8708;SDS011;4391;48.678;9.280;2023-09-12T11:59:40;8.73;;;3.53;;
8708;SDS011;4391;48.678;9.280;2023-09-12T12:02:09;7.78;;;4.07;;
8708;SDS011;4391;48.678;9.280;2023-09-12T12:04:36;8.82;;;4.00;;
8708;SDS011;4391;48.678;9.280;2023-09-12T12:07:04;6.13;;;3.60;;
8708;SDS011;4391;48.678;9.280;2023-09-12T12:09:31;8.75;;;4.00;;
8708;SDS011;4391;48.678;9.280;2023-09-12T12:12:03;8.23;;;3.50;;
8708;SDS011;4391;48.678;9.280;2023-09-12T12:14:34;6.97;;;3.53;;
8708;SDS011;4391;48.678;9.280;2023-09-12T12:17:05;9.85;;;3.88;;
8708;SDS011;4391;48.678;9.280;2023-09-12T12:19:36;7.88;;;3.40;;
8708;SDS011;4391;48.678;9.280;2023-09-12T12:22:03;7.10;;;3.67;;
8708;SDS011;4391;48.678;9.280;2023-09-12T12:24:38;6.63;;;3.80;;
8708;SDS011;4391;48.678;9.280;2023-09-12T12:27:07;8.10;;;3.57;;
8708;SDS011;4391;48.678;9.280;2023-09-12T12:29:38;7.88;;;3.50;;
8708;SDS011;4391;48.678;9.280;2023-09-12T12:32:05;6.57;;;3.75;;
8708;SDS011;4391;48.678;9.280;2023-09-12T12:34:34;7.57;;;3.88;;
8708;SDS011;4391;48.678;9.280;2023-09-12T12:37:02;9.13;;;3.50;;
8708;SDS011;4391;48.678;9.280;2023-09-12T12:39:31;7.87;;;3.23;;
8708;SDS011;4391;48.678;9.280;2023-09-12T12:41:58;5.75;;;3.22;;
8708;SDS011;4391;48.678;9.280;2023-09-12T12:44:32;8.77;;;3.30;;
8708;SDS011;4391;48.678;9.280;2023-09-12T12:47:03;10.73;;;3.40;;
8708;SDS011;4391;48.678;9.280;2023-09-12T12:49:35;5.28;;;3.38;;
8708;SDS011;4391;48.678;9.280;2023-09-12T12:52:02;8.43;;;3.00;;
8708;SDS011;4391;48.678;9.280;2023-09-12T12:54:31;6.67;;;3.30;;
8708;SDS011;4391;48.678;9.280;2023-09-12T12:56:58;7.53;;;3.80;;
8708;SDS011;4391;48.678;9.280;2023-09-12T12:59:25;6.30;;;3.45;;
8708;SDS011;4391;48.678;9.280;2023-09-12T13:01:52;6.15;;;3.10;;
8708;SDS011;4391;48.678;9.280;2023-09-12T13:04:20;6.55;;;3.25;;
8708;SDS011;4391;48.678;9.280;2023-09-12T13:06:49;7.40;;;3.20;;
8708;SDS011;4391;48.678;9.280;2023-09-12T13:09:16;6.35;;;3.30;;
8708;SDS011;4391;48.678;9.280;2023-09-12T13:11:43;5.40;;;3.40;;
8708;SDS011;4391;48.678;9.280;2023-09-12T13:14:10;8.02;;;3.30;;
8708;SDS011;4391;48.678;9.280;2023-09-12T13:16:38;5.60;;;3.00;;
8708;SDS011;4391;48.678;9.280;2023-09-12T13:19:06;10.17;;;3.47;;
8708;SDS011;4391;48.678;9.280;2023-09-12T13:21:34;9.97;;;3.40;;
8708;SDS011;4391;48.678;9.280;2023-09-12T13:24:01;6.95;;;3.28;;
8708;SDS011;4391;48.678;9.280;2023-09-12T13:26:28;8.60;;;3.55;;
8708;SDS011;4391;48.678;9.280;2023-09-12T13:28:56;7.13;;;3.40;;
8708;SDS011;4391;48.678;9.280;2023-09-12T13:31:23;7.78;;;3.40;;
8708;SDS011;4391;48.678;9.280;2023-09-12T13:33:50;7.13;;;3.50;;
8708;SDS011;4391;48.678;9.280;2023-09-12T13:36:17;6.18;;;2.90;;
8708;SDS011;4391;48.678;9.280;2023-09-12T13:38:45;6.00;;;3.28;;
8708;SDS011;4391;48.678;9.280;2023-09-12T13:41:13;7.93;;;3.53;;
8708;SDS011;4391;48.678;9.280;2023-09-12T13:43:40;5.35;;;3.20;;
8708;SDS011;4391;48.678;9.280;2023-09-12T13:46:09;6.47;;;3.37;;
8708;SDS011;4391;48.678;9.280;2023-09-12T13:48:36;7.90;;;3.30;;
8708;SDS011;4391;48.678;9.280;2023-09-12T13:51:03;5.72;;;3.42;;
8708;SDS011;4391;48.678;9.280;2023-09-12T13:53:30;7.75;;;3.90;;
8708;SDS011;4391;48.678;9.280;2023-09-12T13:55:58;5.40;;;3.42;;
8708;SDS011;4391;48.678;9.280;2023-09-12T13:58:27;8.23;;;3.35;;
8708;SDS011;4391;48.678;9.280;2023-09-12T14:00:54;7.40;;;3.43;;
8708;SDS011;4391;48.678;9.280;2023-09-12T14:03:30;6.53;;;3.20;;
8708;SDS011;4391;48.678;9.280;2023-09-12T14:06:00;5.90;;;3.30;;
8708;SDS011;4391;48.678;9.280;2023-09-12T14:08:27;7.90;;;3.10;;
8708;SDS011;4391;48.678;9.280;2023-09-12T14:10:54;6.75;;;3.15;;
8708;SDS011;4391;48.678;9.280;2023-09-12T14:13:23;5.57;;;3.10;;
8708;SDS011;4391;48.678;9.280;2023-09-12T14:15:50;7.87;;;3.17;;
8708;SDS011;4391;48.678;9.280;2023-09-12T14:18:17;13.23;;;3.65;;
8708;SDS011;4391;48.678;9.280;2023-09-12T14:20:44;10.25;;;3.63;;
8708;SDS011;4391;48.678;9.280;2023-09-12T14:23:14;9.52;;;3.95;;
8708;SDS011;4391;48.678;9.280;2023-09-12T14:25:41;11.32;;;4.10;;
8708;SDS011;4391;48.678;9.280;2023-09-12T14:28:08;10.47;;;4.50;;
8708;SDS011;4391;48.678;9.280;2023-09-12T14:30:37;11.83;;;4.60;;
8708;SDS011;4391;48.678;9.280;2023-09-12T14:33:09;9.77;;;4.57;;
8708;SDS011;4391;48.678;9.280;2023-09-12T14:35:36;9.82;;;4.38;;
8708;SDS011;4391;48.678;9.280;2023-09-12T14:38:03;12.77;;;5.28;;
8708;SDS011;4391;48.678;9.280;2023-09-12T14:40:30;15.40;;;4.88;;
8708;SDS011;4391;48.678;9.280;2023-09-12T14:42:57;12.37;;;4.90;;
8708;SDS011;4391;48.678;9.280;2023-09-12T14:45:24;11.65;;;4.82;;
8708;SDS011;4391;48.678;9.280;2023-09-12T14:47:52;10.60;;;5.03;;
8708;SDS011;4391;48.678;9.280;2023-09-12T14:50:22;9.77;;;4.60;;
8708;SDS011;4391;48.678;9.280;2023-09-12T14:52:51;12.07;;;4.60;;
8708;SDS011;4391;48.678;9.280;2023-09-12T14:55:17;9.43;;;4.17;;
8708;SDS011;4391;48.678;9.280;2023-09-12T14:57:44;7.93;;;4.32;;
8708;SDS011;4391;48.678;9.280;2023-09-12T15:00:12;11.65;;;4.38;;
8708;SDS011;4391;48.678;9.280;2023-09-12T15:02:39;10.07;;;4.32;;
8708;SDS011;4391;48.678;9.280;2023-09-12T15:05:08;10.35;;;4.78;;
8708;SDS011;4391;48.678;9.280;2023-09-12T15:07:35;12.33;;;4.80;;
8708;SDS011;4391;48.678;9.280;2023-09-12T15:10:03;10.80;;;4.75;;
8708;SDS011;4391;48.678;9.280;2023-09-12T15:12:30;11.00;;;4.65;;
8708;SDS011;4391;48.678;9.280;2023-09-12T15:14:57;10.25;;;4.30;;
8708;SDS011;4391;48.678;9.280;2023-09-12T15:17:24;9.73;;;4.40;;